Orbital elements of COSMOS 1823 DEB
| Launched | 19 February 1987 |
| Flight ended | – |
| Launch site | Plesetsk Missile and Space Complex, Russia |
| Owner | Commonwealth of Independent States (former USSR) |
| NORAD ID | 18758 |
| Date fetched |
Epoch osculation |
Inc. [°] |
Ecc. | RA asc node [hr] |
Arg Peri. [°] |
Mean anom [°] |
Mean motion [rev/day] |
Abs. mag |
| Date fetched |
Epoch osculation |
Inc. [°] |
Ecc. | RA asc node [hr] |
Arg Peri. [°] |
Mean anom [°] |
Mean motion [rev/day] |
Abs. mag |
| 2026 May 05 17:57 | 2026 May 05 10:13:46 | 73.6255 | 0.00534 | 17.0334 | 52.0649 | 7.6301 | 12.38042 | – |
| 2026 May 04 17:57 | 2026 Apr 30 15:36:31 | 73.6248 | 0.00535 | 17.4574 | 58.9719 | 7.6301 | 12.38042 | – |
| 2026 May 03 17:57 | 2026 Apr 30 15:36:31 | 73.6248 | 0.00535 | 17.4574 | 58.9719 | 7.6301 | 12.38042 | – |
| 2026 May 02 17:57 | 2026 Apr 30 15:36:31 | 73.6248 | 0.00535 | 17.4574 | 58.9719 | 7.6301 | 12.38042 | – |
| 2026 May 01 17:56 | 2026 Apr 30 15:36:31 | 73.6248 | 0.00535 | 17.4574 | 58.9719 | 7.6301 | 12.38042 | – |
| 2026 Apr 30 17:56 | 2026 Apr 30 15:36:31 | 73.6248 | 0.00535 | 17.4574 | 58.9719 | 7.6301 | 12.38042 | – |
| 2026 Apr 29 17:57 | 2026 Apr 24 10:22:05 | 73.6242 | 0.00536 | 18.0094 | 67.9241 | 7.6301 | 12.38042 | – |
| 2026 Apr 28 17:56 | 2026 Apr 24 10:22:05 | 73.6242 | 0.00536 | 18.0094 | 67.9241 | 7.6301 | 12.38042 | – |
| 2026 Apr 27 17:58 | 2026 Apr 24 10:22:05 | 73.6242 | 0.00536 | 18.0094 | 67.9241 | 7.6301 | 12.38042 | – |
| 2026 Apr 26 17:58 | 2026 Apr 24 10:22:05 | 73.6242 | 0.00536 | 18.0094 | 67.9241 | 7.6301 | 12.38042 | – |
| 2026 Apr 25 17:58 | 2026 Apr 24 10:22:05 | 73.6242 | 0.00536 | 18.0094 | 67.9241 | 7.6301 | 12.38042 | – |
| 2026 Apr 24 17:59 | 2026 Apr 24 10:22:05 | 73.6242 | 0.00536 | 18.0094 | 67.9241 | 7.6301 | 12.38042 | – |
| 2026 Apr 23 17:57 | 2026 Apr 19 12:15:28 | 73.6238 | 0.00537 | 18.4463 | 74.9847 | 7.6301 | 12.38042 | – |
| 2026 Apr 22 17:57 | 2026 Apr 19 12:15:28 | 73.6238 | 0.00537 | 18.4463 | 74.9847 | 7.6301 | 12.38042 | – |
| 2026 Apr 21 17:57 | 2026 Apr 19 12:15:28 | 73.6238 | 0.00537 | 18.4463 | 74.9847 | 7.6301 | 12.38042 | – |
| 2026 Apr 20 17:57 | 2026 Apr 19 12:15:28 | 73.6238 | 0.00537 | 18.4463 | 74.9847 | 7.6301 | 12.38042 | – |
| 2026 Apr 19 17:58 | 2026 Apr 19 12:15:28 | 73.6238 | 0.00537 | 18.4463 | 74.9847 | 7.6301 | 12.38042 | – |
| 2026 Apr 18 17:56 | 2026 Apr 12 19:00:42 | 73.6240 | 0.00537 | 19.0428 | 84.5939 | 7.6301 | 12.38042 | – |
| 2026 Apr 16 17:57 | 2026 Apr 12 19:00:42 | 73.6240 | 0.00537 | 19.0428 | 84.5939 | 7.6301 | 12.38042 | – |
| 2026 Apr 14 17:57 | 2026 Apr 12 19:00:42 | 73.6240 | 0.00537 | 19.0428 | 84.5939 | 7.6301 | 12.38042 | – |
| 2026 Apr 13 17:57 | 2026 Apr 12 19:00:42 | 73.6240 | 0.00537 | 19.0428 | 84.5939 | 7.6301 | 12.38042 | – |
| 2026 Apr 12 17:57 | 2026 Apr 08 14:25:47 | 73.6240 | 0.00537 | 19.4149 | 90.5735 | 7.6301 | 12.38042 | – |
| 2026 Apr 11 17:57 | 2026 Apr 08 14:25:47 | 73.6240 | 0.00537 | 19.4149 | 90.5735 | 7.6301 | 12.38042 | – |
| 2026 Apr 10 17:58 | 2026 Apr 08 14:25:47 | 73.6240 | 0.00537 | 19.4149 | 90.5735 | 7.6301 | 12.38042 | – |
| 2026 Apr 09 18:01 | 2026 Apr 08 14:25:47 | 73.6240 | 0.00537 | 19.4149 | 90.5735 | 7.6301 | 12.38042 | – |
| 2026 Apr 08 17:57 | 2026 Apr 08 14:25:47 | 73.6240 | 0.00537 | 19.4149 | 90.5735 | 7.6301 | 12.38042 | – |